sensor_id;sensor_type;location;lat;lon;timestamp;P1;durP1;ratioP1;P2;durP2;ratioP2
18172;SDS011;9211;48.818;9.312;2023-07-29T00:01:10;3.42;;;1.90;;
18172;SDS011;9211;48.818;9.312;2023-07-29T00:03:37;4.95;;;1.70;;
18172;SDS011;9211;48.818;9.312;2023-07-29T00:06:04;5.97;;;1.90;;
18172;SDS011;9211;48.818;9.312;2023-07-29T00:08:31;5.85;;;1.70;;
18172;SDS011;9211;48.818;9.312;2023-07-29T00:10:57;5.25;;;1.60;;
18172;SDS011;9211;48.818;9.312;2023-07-29T00:13:24;2.70;;;1.40;;
18172;SDS011;9211;48.818;9.312;2023-07-29T00:15:54;3.10;;;1.40;;
18172;SDS011;9211;48.818;9.312;2023-07-29T00:18:21;3.30;;;1.60;;
18172;SDS011;9211;48.818;9.312;2023-07-29T00:20:48;4.47;;;1.70;;
18172;SDS011;9211;48.818;9.312;2023-07-29T00:23:16;2.92;;;1.60;;
18172;SDS011;9211;48.818;9.312;2023-07-29T00:25:45;4.05;;;1.80;;
18172;SDS011;9211;48.818;9.312;2023-07-29T00:28:12;4.97;;;1.73;;
18172;SDS011;9211;48.818;9.312;2023-07-29T00:30:39;5.50;;;2.00;;
18172;SDS011;9211;48.818;9.312;2023-07-29T00:33:07;3.43;;;1.57;;
18172;SDS011;9211;48.818;9.312;2023-07-29T00:35:34;4.53;;;1.70;;
18172;SDS011;9211;48.818;9.312;2023-07-29T00:38:01;5.93;;;1.77;;
18172;SDS011;9211;48.818;9.312;2023-07-29T00:40:28;4.72;;;2.00;;
18172;SDS011;9211;48.818;9.312;2023-07-29T00:42:55;4.35;;;1.95;;
18172;SDS011;9211;48.818;9.312;2023-07-29T00:45:22;3.70;;;1.70;;
18172;SDS011;9211;48.818;9.312;2023-07-29T00:47:51;5.00;;;1.95;;
18172;SDS011;9211;48.818;9.312;2023-07-29T00:50:19;7.07;;;2.00;;
18172;SDS011;9211;48.818;9.312;2023-07-29T00:52:47;4.60;;;2.00;;
18172;SDS011;9211;48.818;9.312;2023-07-29T00:55:15;4.57;;;2.05;;
18172;SDS011;9211;48.818;9.312;2023-07-29T00:57:43;4.78;;;1.90;;
18172;SDS011;9211;48.818;9.312;2023-07-29T01:00:13;4.37;;;1.80;;
18172;SDS011;9211;48.818;9.312;2023-07-29T01:02:41;3.40;;;1.80;;
18172;SDS011;9211;48.818;9.312;2023-07-29T01:05:09;3.90;;;1.70;;
18172;SDS011;9211;48.818;9.312;2023-07-29T01:07:43;3.30;;;1.70;;
18172;SDS011;9211;48.818;9.312;2023-07-29T01:10:18;2.50;;;1.52;;
18172;SDS011;9211;48.818;9.312;2023-07-29T01:12:54;2.40;;;1.67;;
18172;SDS011;9211;48.818;9.312;2023-07-29T01:15:28;3.95;;;1.70;;
18172;SDS011;9211;48.818;9.312;2023-07-29T01:18:02;6.05;;;1.90;;
18172;SDS011;9211;48.818;9.312;2023-07-29T01:20:32;4.38;;;1.70;;
18172;SDS011;9211;48.818;9.312;2023-07-29T01:23:03;2.05;;;1.50;;
18172;SDS011;9211;48.818;9.312;2023-07-29T01:25:31;3.17;;;1.70;;
18172;SDS011;9211;48.818;9.312;2023-07-29T01:27:58;4.72;;;1.63;;
18172;SDS011;9211;48.818;9.312;2023-07-29T01:30:30;6.07;;;1.50;;
18172;SDS011;9211;48.818;9.312;2023-07-29T01:33:03;3.40;;;1.60;;
18172;SDS011;9211;48.818;9.312;2023-07-29T01:35:35;4.50;;;1.53;;
18172;SDS011;9211;48.818;9.312;2023-07-29T01:38:09;5.55;;;1.48;;
18172;SDS011;9211;48.818;9.312;2023-07-29T01:40:41;4.43;;;1.50;;
18172;SDS011;9211;48.818;9.312;2023-07-29T01:43:10;2.80;;;1.40;;
18172;SDS011;9211;48.818;9.312;2023-07-29T01:45:37;6.27;;;1.70;;
18172;SDS011;9211;48.818;9.312;2023-07-29T01:48:04;4.60;;;1.50;;
18172;SDS011;9211;48.818;9.312;2023-07-29T01:50:32;2.55;;;1.42;;
18172;SDS011;9211;48.818;9.312;2023-07-29T01:53:00;3.25;;;1.20;;
18172;SDS011;9211;48.818;9.312;2023-07-29T01:55:27;1.92;;;1.30;;
18172;SDS011;9211;48.818;9.312;2023-07-29T01:57:55;1.92;;;1.30;;
18172;SDS011;9211;48.818;9.312;2023-07-29T02:02:59;2.90;;;1.30;;
18172;SDS011;9211;48.818;9.312;2023-07-29T02:05:26;1.92;;;1.20;;
18172;SDS011;9211;48.818;9.312;2023-07-29T02:07:53;1.95;;;1.13;;
18172;SDS011;9211;48.818;9.312;2023-07-29T02:10:20;2.42;;;1.20;;
18172;SDS011;9211;48.818;9.312;2023-07-29T02:12:47;2.50;;;1.10;;
18172;SDS011;9211;48.818;9.312;2023-07-29T02:15:15;2.22;;;1.20;;
18172;SDS011;9211;48.818;9.312;2023-07-29T02:17:42;3.43;;;1.20;;
18172;SDS011;9211;48.818;9.312;2023-07-29T02:20:10;3.00;;;1.20;;
18172;SDS011;9211;48.818;9.312;2023-07-29T02:22:37;3.90;;;1.40;;
18172;SDS011;9211;48.818;9.312;2023-07-29T02:25:04;2.25;;;1.25;;
18172;SDS011;9211;48.818;9.312;2023-07-29T02:27:31;2.88;;;1.30;;
18172;SDS011;9211;48.818;9.312;2023-07-29T02:29:58;3.20;;;1.45;;
18172;SDS011;9211;48.818;9.312;2023-07-29T02:32:27;2.95;;;1.50;;
18172;SDS011;9211;48.818;9.312;2023-07-29T02:34:54;4.45;;;1.50;;
18172;SDS011;9211;48.818;9.312;2023-07-29T02:37:21;2.47;;;1.40;;
18172;SDS011;9211;48.818;9.312;2023-07-29T02:39:48;4.10;;;1.60;;
18172;SDS011;9211;48.818;9.312;2023-07-29T02:42:15;2.75;;;1.60;;
18172;SDS011;9211;48.818;9.312;2023-07-29T02:44:42;3.35;;;1.67;;
18172;SDS011;9211;48.818;9.312;2023-07-29T02:47:10;3.30;;;1.70;;
18172;SDS011;9211;48.818;9.312;2023-07-29T02:49:38;3.45;;;1.90;;
18172;SDS011;9211;48.818;9.312;2023-07-29T02:52:05;5.15;;;1.90;;
18172;SDS011;9211;48.818;9.312;2023-07-29T02:54:32;4.30;;;1.90;;
18172;SDS011;9211;48.818;9.312;2023-07-29T02:56:59;4.50;;;1.92;;
18172;SDS011;9211;48.818;9.312;2023-07-29T02:59:26;2.63;;;1.98;;
18172;SDS011;9211;48.818;9.312;2023-07-29T03:01:53;3.72;;;1.90;;
18172;SDS011;9211;48.818;9.312;2023-07-29T03:04:20;4.68;;;1.80;;
18172;SDS011;9211;48.818;9.312;2023-07-29T03:06:48;2.58;;;1.88;;
18172;SDS011;9211;48.818;9.312;2023-07-29T03:09:15;5.80;;;1.95;;
18172;SDS011;9211;48.818;9.312;2023-07-29T03:11:42;3.38;;;1.85;;
18172;SDS011;9211;48.818;9.312;2023-07-29T03:14:09;4.53;;;1.70;;
18172;SDS011;9211;48.818;9.312;2023-07-29T03:16:36;3.72;;;1.80;;
18172;SDS011;9211;48.818;9.312;2023-07-29T03:19:03;4.45;;;2.00;;
18172;SDS011;9211;48.818;9.312;2023-07-29T03:21:31;3.27;;;1.80;;
18172;SDS011;9211;48.818;9.312;2023-07-29T03:23:59;5.13;;;1.80;;
18172;SDS011;9211;48.818;9.312;2023-07-29T03:26:26;3.80;;;1.90;;
18172;SDS011;9211;48.818;9.312;2023-07-29T03:28:53;4.18;;;1.80;;
18172;SDS011;9211;48.818;9.312;2023-07-29T03:31:20;4.80;;;1.77;;
18172;SDS011;9211;48.818;9.312;2023-07-29T03:33:47;3.60;;;1.73;;
18172;SDS011;9211;48.818;9.312;2023-07-29T03:36:14;3.45;;;1.80;;
18172;SDS011;9211;48.818;9.312;2023-07-29T03:38:41;3.50;;;1.70;;
18172;SDS011;9211;48.818;9.312;2023-07-29T03:41:11;4.20;;;1.75;;
18172;SDS011;9211;48.818;9.312;2023-07-29T03:43:38;5.38;;;1.90;;
18172;SDS011;9211;48.818;9.312;2023-07-29T03:46:05;3.90;;;1.73;;
18172;SDS011;9211;48.818;9.312;2023-07-29T03:48:32;3.55;;;1.70;;
18172;SDS011;9211;48.818;9.312;2023-07-29T03:50:59;3.17;;;1.60;;
18172;SDS011;9211;48.818;9.312;2023-07-29T03:53:26;3.65;;;1.60;;
18172;SDS011;9211;48.818;9.312;2023-07-29T03:55:52;2.83;;;1.60;;
18172;SDS011;9211;48.818;9.312;2023-07-29T03:58:21;4.60;;;1.80;;
18172;SDS011;9211;48.818;9.312;2023-07-29T04:00:48;3.03;;;1.50;;
18172;SDS011;9211;48.818;9.312;2023-07-29T04:03:15;3.80;;;1.70;;
18172;SDS011;9211;48.818;9.312;2023-07-29T04:05:45;5.80;;;1.73;;
18172;SDS011;9211;48.818;9.312;2023-07-29T04:08:12;4.85;;;1.70;;
18172;SDS011;9211;48.818;9.312;2023-07-29T04:10:39;3.97;;;1.60;;
18172;SDS011;9211;48.818;9.312;2023-07-29T04:13:06;4.28;;;1.83;;
18172;SDS011;9211;48.818;9.312;2023-07-29T04:15:34;6.57;;;2.00;;
18172;SDS011;9211;48.818;9.312;2023-07-29T04:18:01;6.10;;;2.10;;
18172;SDS011;9211;48.818;9.312;2023-07-29T04:20:28;4.80;;;2.08;;
18172;SDS011;9211;48.818;9.312;2023-07-29T04:22:55;4.90;;;1.98;;
18172;SDS011;9211;48.818;9.312;2023-07-29T04:25:22;5.60;;;2.00;;
18172;SDS011;9211;48.818;9.312;2023-07-29T04:27:49;5.82;;;2.03;;
18172;SDS011;9211;48.818;9.312;2023-07-29T04:30:16;3.95;;;1.85;;
18172;SDS011;9211;48.818;9.312;2023-07-29T04:32:44;5.28;;;1.70;;
18172;SDS011;9211;48.818;9.312;2023-07-29T04:35:13;5.47;;;1.75;;
18172;SDS011;9211;48.818;9.312;2023-07-29T04:37:40;3.40;;;1.63;;
18172;SDS011;9211;48.818;9.312;2023-07-29T04:40:07;4.07;;;1.60;;
18172;SDS011;9211;48.818;9.312;2023-07-29T04:42:36;4.70;;;1.87;;
18172;SDS011;9211;48.818;9.312;2023-07-29T04:45:03;4.03;;;1.98;;
18172;SDS011;9211;48.818;9.312;2023-07-29T04:47:32;10.33;;;2.10;;
18172;SDS011;9211;48.818;9.312;2023-07-29T04:50:00;5.97;;;2.10;;
18172;SDS011;9211;48.818;9.312;2023-07-29T04:52:27;5.87;;;1.80;;
18172;SDS011;9211;48.818;9.312;2023-07-29T04:54:54;5.50;;;2.10;;
18172;SDS011;9211;48.818;9.312;2023-07-29T04:57:20;6.05;;;2.20;;
18172;SDS011;9211;48.818;9.312;2023-07-29T04:59:47;5.78;;;1.92;;
18172;SDS011;9211;48.818;9.312;2023-07-29T05:02:14;5.13;;;2.42;;
18172;SDS011;9211;48.818;9.312;2023-07-29T05:04:41;5.00;;;2.20;;
18172;SDS011;9211;48.818;9.312;2023-07-29T05:07:10;4.85;;;2.00;;
18172;SDS011;9211;48.818;9.312;2023-07-29T05:09:37;6.05;;;2.17;;
18172;SDS011;9211;48.818;9.312;2023-07-29T05:12:04;7.72;;;2.05;;
18172;SDS011;9211;48.818;9.312;2023-07-29T05:14:32;5.30;;;2.20;;
18172;SDS011;9211;48.818;9.312;2023-07-29T05:16:59;5.20;;;2.17;;
18172;SDS011;9211;48.818;9.312;2023-07-29T05:19:27;3.92;;;2.35;;
18172;SDS011;9211;48.818;9.312;2023-07-29T05:21:54;6.40;;;2.20;;
18172;SDS011;9211;48.818;9.312;2023-07-29T05:24:22;6.87;;;2.50;;
18172;SDS011;9211;48.818;9.312;2023-07-29T05:26:49;7.28;;;2.30;;
18172;SDS011;9211;48.818;9.312;2023-07-29T05:29:16;5.38;;;2.20;;
18172;SDS011;9211;48.818;9.312;2023-07-29T05:31:43;6.32;;;2.38;;
18172;SDS011;9211;48.818;9.312;2023-07-29T05:34:10;4.28;;;2.00;;
18172;SDS011;9211;48.818;9.312;2023-07-29T05:36:37;5.32;;;2.30;;
18172;SDS011;9211;48.818;9.312;2023-07-29T05:39:04;5.95;;;2.03;;
18172;SDS011;9211;48.818;9.312;2023-07-29T05:41:33;4.80;;;2.25;;
18172;SDS011;9211;48.818;9.312;2023-07-29T05:44:00;3.75;;;1.98;;
18172;SDS011;9211;48.818;9.312;2023-07-29T05:46:27;3.70;;;1.98;;
18172;SDS011;9211;48.818;9.312;2023-07-29T05:48:54;3.53;;;1.85;;
18172;SDS011;9211;48.818;9.312;2023-07-29T05:51:21;3.75;;;2.05;;
18172;SDS011;9211;48.818;9.312;2023-07-29T05:53:48;3.83;;;1.80;;
18172;SDS011;9211;48.818;9.312;2023-07-29T05:56:15;3.15;;;1.63;;
18172;SDS011;9211;48.818;9.312;2023-07-29T05:58:44;3.30;;;1.88;;
18172;SDS011;9211;48.818;9.312;2023-07-29T06:01:11;3.80;;;1.80;;
18172;SDS011;9211;48.818;9.312;2023-07-29T06:03:38;4.00;;;1.60;;
18172;SDS011;9211;48.818;9.312;2023-07-29T06:06:05;3.65;;;1.77;;
18172;SDS011;9211;48.818;9.312;2023-07-29T06:08:32;2.72;;;1.50;;
18172;SDS011;9211;48.818;9.312;2023-07-29T06:10:59;2.73;;;1.67;;
18172;SDS011;9211;48.818;9.312;2023-07-29T06:13:26;2.30;;;1.55;;
18172;SDS011;9211;48.818;9.312;2023-07-29T06:15:55;4.35;;;2.17;;
18172;SDS011;9211;48.818;9.312;2023-07-29T06:18:22;3.70;;;2.10;;
18172;SDS011;9211;48.818;9.312;2023-07-29T06:20:49;3.70;;;2.00;;
18172;SDS011;9211;48.818;9.312;2023-07-29T06:23:16;3.95;;;2.00;;
18172;SDS011;9211;48.818;9.312;2023-07-29T06:25:44;4.28;;;1.73;;
18172;SDS011;9211;48.818;9.312;2023-07-29T06:28:11;3.53;;;1.70;;
18172;SDS011;9211;48.818;9.312;2023-07-29T06:30:38;3.20;;;1.67;;
18172;SDS011;9211;48.818;9.312;2023-07-29T06:33:06;4.88;;;2.00;;
18172;SDS011;9211;48.818;9.312;2023-07-29T06:35:34;2.47;;;1.65;;
18172;SDS011;9211;48.818;9.312;2023-07-29T06:38:00;4.35;;;1.50;;
18172;SDS011;9211;48.818;9.312;2023-07-29T06:40:27;2.67;;;1.40;;
18172;SDS011;9211;48.818;9.312;2023-07-29T06:42:54;2.97;;;1.60;;
18172;SDS011;9211;48.818;9.312;2023-07-29T06:45:21;2.60;;;1.40;;
18172;SDS011;9211;48.818;9.312;2023-07-29T06:47:48;2.60;;;1.55;;
18172;SDS011;9211;48.818;9.312;2023-07-29T06:50:16;2.22;;;1.50;;
18172;SDS011;9211;48.818;9.312;2023-07-29T06:52:43;2.88;;;1.60;;
18172;SDS011;9211;48.818;9.312;2023-07-29T06:55:10;2.10;;;1.50;;
18172;SDS011;9211;48.818;9.312;2023-07-29T06:57:37;3.65;;;1.98;;
18172;SDS011;9211;48.818;9.312;2023-07-29T07:00:05;4.10;;;1.85;;
18172;SDS011;9211;48.818;9.312;2023-07-29T07:02:34;3.63;;;1.80;;
18172;SDS011;9211;48.818;9.312;2023-07-29T07:05:01;4.03;;;2.00;;
18172;SDS011;9211;48.818;9.312;2023-07-29T07:07:29;4.35;;;2.05;;
18172;SDS011;9211;48.818;9.312;2023-07-29T07:09:56;3.40;;;1.77;;
18172;SDS011;9211;48.818;9.312;2023-07-29T07:12:23;5.23;;;2.00;;
18172;SDS011;9211;48.818;9.312;2023-07-29T07:14:50;5.05;;;2.10;;
18172;SDS011;9211;48.818;9.312;2023-07-29T07:17:17;3.60;;;1.88;;
18172;SDS011;9211;48.818;9.312;2023-07-29T07:19:44;3.35;;;1.80;;
18172;SDS011;9211;48.818;9.312;2023-07-29T07:22:11;5.55;;;2.03;;
18172;SDS011;9211;48.818;9.312;2023-07-29T07:24:40;4.88;;;2.13;;
18172;SDS011;9211;48.818;9.312;2023-07-29T07:27:06;5.03;;;2.00;;
18172;SDS011;9211;48.818;9.312;2023-07-29T07:29:33;5.55;;;1.80;;
18172;SDS011;9211;48.818;9.312;2023-07-29T07:32:00;5.82;;;1.80;;
18172;SDS011;9211;48.818;9.312;2023-07-29T07:34:27;2.70;;;1.50;;
18172;SDS011;9211;48.818;9.312;2023-07-29T07:36:54;3.33;;;1.40;;
18172;SDS011;9211;48.818;9.312;2023-07-29T07:39:21;3.28;;;1.50;;
18172;SDS011;9211;48.818;9.312;2023-07-29T07:41:49;2.50;;;1.60;;
18172;SDS011;9211;48.818;9.312;2023-07-29T07:44:16;4.17;;;1.83;;
18172;SDS011;9211;48.818;9.312;2023-07-29T07:46:44;4.68;;;1.73;;
18172;SDS011;9211;48.818;9.312;2023-07-29T07:49:11;5.55;;;1.92;;
18172;SDS011;9211;48.818;9.312;2023-07-29T07:51:38;3.83;;;1.90;;
18172;SDS011;9211;48.818;9.312;2023-07-29T07:54:05;4.60;;;2.15;;
18172;SDS011;9211;48.818;9.312;2023-07-29T07:56:32;3.63;;;1.90;;
18172;SDS011;9211;48.818;9.312;2023-07-29T07:59:00;5.43;;;1.88;;
18172;SDS011;9211;48.818;9.312;2023-07-29T08:01:27;5.95;;;2.13;;
18172;SDS011;9211;48.818;9.312;2023-07-29T08:04:00;4.00;;;1.80;;
18172;SDS011;9211;48.818;9.312;2023-07-29T08:06:27;6.78;;;2.17;;
18172;SDS011;9211;48.818;9.312;2023-07-29T08:08:53;3.40;;;1.90;;
18172;SDS011;9211;48.818;9.312;2023-07-29T08:11:20;4.13;;;1.80;;
18172;SDS011;9211;48.818;9.312;2023-07-29T08:13:47;3.45;;;1.83;;
18172;SDS011;9211;48.818;9.312;2023-07-29T08:16:16;3.97;;;1.80;;
18172;SDS011;9211;48.818;9.312;2023-07-29T08:18:43;3.63;;;1.60;;
18172;SDS011;9211;48.818;9.312;2023-07-29T08:21:10;3.53;;;1.73;;
18172;SDS011;9211;48.818;9.312;2023-07-29T08:23:37;4.50;;;1.80;;
18172;SDS011;9211;48.818;9.312;2023-07-29T08:26:04;3.70;;;1.50;;
18172;SDS011;9211;48.818;9.312;2023-07-29T08:28:33;4.00;;;2.00;;
18172;SDS011;9211;48.818;9.312;2023-07-29T08:31:01;2.20;;;1.40;;
18172;SDS011;9211;48.818;9.312;2023-07-29T08:33:30;2.25;;;1.30;;
18172;SDS011;9211;48.818;9.312;2023-07-29T08:35:58;3.58;;;1.38;;
18172;SDS011;9211;48.818;9.312;2023-07-29T08:38:26;4.97;;;1.30;;
18172;SDS011;9211;48.818;9.312;2023-07-29T08:40:53;1.97;;;1.13;;
18172;SDS011;9211;48.818;9.312;2023-07-29T08:43:25;2.25;;;1.40;;
18172;SDS011;9211;48.818;9.312;2023-07-29T08:45:57;2.88;;;1.33;;
18172;SDS011;9211;48.818;9.312;2023-07-29T08:48:27;3.60;;;1.30;;
18172;SDS011;9211;48.818;9.312;2023-07-29T08:50:59;2.17;;;1.30;;
18172;SDS011;9211;48.818;9.312;2023-07-29T08:53:29;2.03;;;1.42;;
18172;SDS011;9211;48.818;9.312;2023-07-29T08:55:57;2.90;;;1.08;;
18172;SDS011;9211;48.818;9.312;2023-07-29T08:58:25;2.53;;;1.25;;
18172;SDS011;9211;48.818;9.312;2023-07-29T09:00:52;1.80;;;1.30;;
18172;SDS011;9211;48.818;9.312;2023-07-29T09:03:19;3.60;;;1.50;;
18172;SDS011;9211;48.818;9.312;2023-07-29T09:05:48;3.03;;;1.43;;
18172;SDS011;9211;48.818;9.312;2023-07-29T09:08:15;2.85;;;1.60;;
18172;SDS011;9211;48.818;9.312;2023-07-29T09:10:42;3.53;;;1.50;;
18172;SDS011;9211;48.818;9.312;2023-07-29T09:13:09;3.08;;;1.40;;
18172;SDS011;9211;48.818;9.312;2023-07-29T09:15:36;3.10;;;1.40;;
18172;SDS011;9211;48.818;9.312;2023-07-29T09:18:09;2.88;;;1.52;;
18172;SDS011;9211;48.818;9.312;2023-07-29T09:20:37;2.92;;;1.30;;
18172;SDS011;9211;48.818;9.312;2023-07-29T09:23:07;3.33;;;1.60;;
18172;SDS011;9211;48.818;9.312;2023-07-29T09:25:35;2.78;;;1.35;;
18172;SDS011;9211;48.818;9.312;2023-07-29T09:28:07;3.13;;;1.70;;
18172;SDS011;9211;48.818;9.312;2023-07-29T09:30:35;2.58;;;1.40;;
18172;SDS011;9211;48.818;9.312;2023-07-29T09:33:03;2.17;;;1.30;;
18172;SDS011;9211;48.818;9.312;2023-07-29T09:35:31;2.53;;;1.40;;
18172;SDS011;9211;48.818;9.312;2023-07-29T09:37:59;2.67;;;1.58;;
18172;SDS011;9211;48.818;9.312;2023-07-29T09:40:27;2.38;;;1.50;;
18172;SDS011;9211;48.818;9.312;2023-07-29T09:43:01;2.97;;;1.35;;
18172;SDS011;9211;48.818;9.312;2023-07-29T09:45:29;1.73;;;1.23;;
18172;SDS011;9211;48.818;9.312;2023-07-29T09:47:56;2.35;;;1.30;;
18172;SDS011;9211;48.818;9.312;2023-07-29T09:50:23;2.67;;;1.20;;
18172;SDS011;9211;48.818;9.312;2023-07-29T09:52:51;2.50;;;1.30;;
18172;SDS011;9211;48.818;9.312;2023-07-29T09:55:20;2.90;;;1.30;;
18172;SDS011;9211;48.818;9.312;2023-07-29T09:57:53;2.47;;;1.30;;
18172;SDS011;9211;48.818;9.312;2023-07-29T10:00:22;3.20;;;1.25;;
18172;SDS011;9211;48.818;9.312;2023-07-29T10:02:49;2.13;;;1.40;;
18172;SDS011;9211;48.818;9.312;2023-07-29T10:05:18;2.33;;;1.30;;
18172;SDS011;9211;48.818;9.312;2023-07-29T10:07:46;3.00;;;1.45;;
18172;SDS011;9211;48.818;9.312;2023-07-29T10:10:14;2.20;;;1.40;;
18172;SDS011;9211;48.818;9.312;2023-07-29T10:12:43;3.33;;;1.50;;
18172;SDS011;9211;48.818;9.312;2023-07-29T10:15:12;2.28;;;1.30;;
18172;SDS011;9211;48.818;9.312;2023-07-29T10:17:39;3.00;;;1.30;;
18172;SDS011;9211;48.818;9.312;2023-07-29T10:20:07;1.60;;;1.30;;
18172;SDS011;9211;48.818;9.312;2023-07-29T10:22:36;2.03;;;1.25;;
18172;SDS011;9211;48.818;9.312;2023-07-29T10:25:05;3.50;;;1.50;;
18172;SDS011;9211;48.818;9.312;2023-07-29T10:27:35;2.00;;;1.20;;
18172;SDS011;9211;48.818;9.312;2023-07-29T10:30:11;2.28;;;1.40;;
18172;SDS011;9211;48.818;9.312;2023-07-29T10:32:41;4.05;;;1.33;;
18172;SDS011;9211;48.818;9.312;2023-07-29T10:35:08;2.50;;;1.10;;
18172;SDS011;9211;48.818;9.312;2023-07-29T10:37:36;2.50;;;1.00;;
18172;SDS011;9211;48.818;9.312;2023-07-29T10:40:05;2.92;;;1.08;;
18172;SDS011;9211;48.818;9.312;2023-07-29T10:42:33;1.65;;;0.90;;
18172;SDS011;9211;48.818;9.312;2023-07-29T10:45:03;2.30;;;0.90;;
18172;SDS011;9211;48.818;9.312;2023-07-29T10:47:45;1.40;;;0.93;;
18172;SDS011;9211;48.818;9.312;2023-07-29T10:50:21;2.60;;;0.90;;
18172;SDS011;9211;48.818;9.312;2023-07-29T10:52:49;1.98;;;0.95;;
18172;SDS011;9211;48.818;9.312;2023-07-29T10:55:24;1.23;;;0.90;;
18172;SDS011;9211;48.818;9.312;2023-07-29T10:57:52;1.88;;;0.88;;
18172;SDS011;9211;48.818;9.312;2023-07-29T11:00:31;1.53;;;1.00;;
18172;SDS011;9211;48.818;9.312;2023-07-29T11:02:59;1.05;;;0.90;;
18172;SDS011;9211;48.818;9.312;2023-07-29T11:05:28;1.10;;;0.90;;
18172;SDS011;9211;48.818;9.312;2023-07-29T11:08:15;1.40;;;1.00;;
18172;SDS011;9211;48.818;9.312;2023-07-29T11:10:44;2.25;;;1.10;;
18172;SDS011;9211;48.818;9.312;2023-07-29T11:13:23;1.15;;;0.90;;
18172;SDS011;9211;48.818;9.312;2023-07-29T11:15:54;1.80;;;0.93;;
18172;SDS011;9211;48.818;9.312;2023-07-29T11:18:25;1.42;;;0.98;;
18172;SDS011;9211;48.818;9.312;2023-07-29T11:20:54;1.80;;;1.00;;
18172;SDS011;9211;48.818;9.312;2023-07-29T11:23:23;1.40;;;1.00;;
18172;SDS011;9211;48.818;9.312;2023-07-29T11:25:55;2.33;;;1.10;;
18172;SDS011;9211;48.818;9.312;2023-07-29T11:28:22;1.42;;;0.98;;
18172;SDS011;9211;48.818;9.312;2023-07-29T11:30:49;2.30;;;1.08;;
18172;SDS011;9211;48.818;9.312;2023-07-29T11:33:18;2.60;;;1.10;;
18172;SDS011;9211;48.818;9.312;2023-07-29T11:35:46;1.40;;;1.10;;
18172;SDS011;9211;48.818;9.312;2023-07-29T11:38:16;1.83;;;1.10;;
18172;SDS011;9211;48.818;9.312;2023-07-29T11:40:53;1.65;;;0.90;;
18172;SDS011;9211;48.818;9.312;2023-07-29T11:43:21;1.83;;;1.00;;
18172;SDS011;9211;48.818;9.312;2023-07-29T11:45:50;2.22;;;1.00;;
18172;SDS011;9211;48.818;9.312;2023-07-29T11:48:21;2.22;;;1.13;;
18172;SDS011;9211;48.818;9.312;2023-07-29T11:50:53;2.00;;;1.10;;
18172;SDS011;9211;48.818;9.312;2023-07-29T11:53:20;3.05;;;1.10;;
18172;SDS011;9211;48.818;9.312;2023-07-29T11:55:49;1.70;;;1.00;;
18172;SDS011;9211;48.818;9.312;2023-07-29T11:58:17;3.00;;;1.08;;
18172;SDS011;9211;48.818;9.312;2023-07-29T12:00:44;2.10;;;1.00;;
18172;SDS011;9211;48.818;9.312;2023-07-29T12:03:11;2.15;;;1.20;;
18172;SDS011;9211;48.818;9.312;2023-07-29T12:05:39;1.80;;;1.00;;
18172;SDS011;9211;48.818;9.312;2023-07-29T12:08:06;3.60;;;1.27;;
18172;SDS011;9211;48.818;9.312;2023-07-29T12:10:35;1.23;;;1.02;;
18172;SDS011;9211;48.818;9.312;2023-07-29T12:13:02;2.30;;;1.15;;
18172;SDS011;9211;48.818;9.312;2023-07-29T12:15:29;1.50;;;1.10;;
18172;SDS011;9211;48.818;9.312;2023-07-29T12:17:57;2.38;;;1.30;;
18172;SDS011;9211;48.818;9.312;2023-07-29T12:20:24;1.73;;;1.30;;
18172;SDS011;9211;48.818;9.312;2023-07-29T12:22:54;2.80;;;1.30;;
18172;SDS011;9211;48.818;9.312;2023-07-29T12:25:21;1.75;;;1.20;;
18172;SDS011;9211;48.818;9.312;2023-07-29T12:27:48;2.10;;;1.40;;
18172;SDS011;9211;48.818;9.312;2023-07-29T12:30:15;1.50;;;1.10;;
18172;SDS011;9211;48.818;9.312;2023-07-29T12:32:46;2.53;;;1.17;;
18172;SDS011;9211;48.818;9.312;2023-07-29T12:35:13;2.22;;;1.08;;
18172;SDS011;9211;48.818;9.312;2023-07-29T12:37:40;1.80;;;1.30;;
18172;SDS011;9211;48.818;9.312;2023-07-29T12:40:20;1.90;;;1.30;;
18172;SDS011;9211;48.818;9.312;2023-07-29T12:42:50;1.58;;;1.20;;
18172;SDS011;9211;48.818;9.312;2023-07-29T12:45:17;2.47;;;1.50;;
18172;SDS011;9211;48.818;9.312;2023-07-29T12:47:46;2.03;;;1.30;;
18172;SDS011;9211;48.818;9.312;2023-07-29T12:50:13;2.38;;;1.45;;
18172;SDS011;9211;48.818;9.312;2023-07-29T12:52:40;2.90;;;1.40;;
18172;SDS011;9211;48.818;9.312;2023-07-29T12:55:07;1.60;;;1.23;;
18172;SDS011;9211;48.818;9.312;2023-07-29T12:57:39;2.08;;;1.40;;
18172;SDS011;9211;48.818;9.312;2023-07-29T13:00:07;2.25;;;1.60;;
18172;SDS011;9211;48.818;9.312;2023-07-29T13:02:35;1.80;;;1.30;;
18172;SDS011;9211;48.818;9.312;2023-07-29T13:05:02;2.57;;;1.30;;
18172;SDS011;9211;48.818;9.312;2023-07-29T13:07:30;2.70;;;1.40;;
18172;SDS011;9211;48.818;9.312;2023-07-29T13:09:56;1.65;;;1.25;;
18172;SDS011;9211;48.818;9.312;2023-07-29T13:12:23;1.87;;;1.37;;
18172;SDS011;9211;48.818;9.312;2023-07-29T13:14:52;1.58;;;1.17;;
18172;SDS011;9211;48.818;9.312;2023-07-29T13:17:18;3.13;;;1.30;;
18172;SDS011;9211;48.818;9.312;2023-07-29T13:19:47;2.15;;;1.20;;
18172;SDS011;9211;48.818;9.312;2023-07-29T13:22:14;2.67;;;1.40;;
18172;SDS011;9211;48.818;9.312;2023-07-29T13:24:41;2.50;;;1.30;;
18172;SDS011;9211;48.818;9.312;2023-07-29T13:27:07;1.98;;;1.30;;
18172;SDS011;9211;48.818;9.312;2023-07-29T13:29:34;2.05;;;1.27;;
18172;SDS011;9211;48.818;9.312;2023-07-29T13:32:03;2.15;;;1.40;;
18172;SDS011;9211;48.818;9.312;2023-07-29T13:34:30;2.22;;;1.60;;
18172;SDS011;9211;48.818;9.312;2023-07-29T13:36:57;1.98;;;1.50;;
18172;SDS011;9211;48.818;9.312;2023-07-29T13:39:24;2.17;;;1.40;;
18172;SDS011;9211;48.818;9.312;2023-07-29T13:41:51;2.78;;;1.30;;
18172;SDS011;9211;48.818;9.312;2023-07-29T13:44:18;2.00;;;1.50;;
18172;SDS011;9211;48.818;9.312;2023-07-29T13:46:44;2.80;;;1.50;;
18172;SDS011;9211;48.818;9.312;2023-07-29T13:49:13;3.25;;;1.50;;
18172;SDS011;9211;48.818;9.312;2023-07-29T13:51:39;3.30;;;1.50;;
18172;SDS011;9211;48.818;9.312;2023-07-29T13:54:07;1.75;;;1.25;;
18172;SDS011;9211;48.818;9.312;2023-07-29T13:56:34;2.10;;;1.30;;
18172;SDS011;9211;48.818;9.312;2023-07-29T13:59:01;2.05;;;1.33;;
18172;SDS011;9211;48.818;9.312;2023-07-29T14:01:28;1.83;;;1.40;;
18172;SDS011;9211;48.818;9.312;2023-07-29T14:03:55;1.80;;;1.40;;
18172;SDS011;9211;48.818;9.312;2023-07-29T14:06:23;1.90;;;1.40;;
18172;SDS011;9211;48.818;9.312;2023-07-29T14:08:50;2.15;;;1.38;;
18172;SDS011;9211;48.818;9.312;2023-07-29T14:11:17;2.37;;;1.30;;
18172;SDS011;9211;48.818;9.312;2023-07-29T14:13:43;2.90;;;1.20;;
18172;SDS011;9211;48.818;9.312;2023-07-29T14:16:10;2.75;;;1.42;;
18172;SDS011;9211;48.818;9.312;2023-07-29T14:18:37;2.50;;;1.40;;
18172;SDS011;9211;48.818;9.312;2023-07-29T14:21:04;1.80;;;1.30;;
18172;SDS011;9211;48.818;9.312;2023-07-29T14:23:32;2.75;;;1.40;;
18172;SDS011;9211;48.818;9.312;2023-07-29T14:25:59;1.80;;;1.20;;
18172;SDS011;9211;48.818;9.312;2023-07-29T14:28:26;4.25;;;1.40;;
18172;SDS011;9211;48.818;9.312;2023-07-29T14:30:52;1.65;;;1.35;;
18172;SDS011;9211;48.818;9.312;2023-07-29T14:33:19;1.80;;;1.40;;
18172;SDS011;9211;48.818;9.312;2023-07-29T14:35:46;2.00;;;1.33;;
18172;SDS011;9211;48.818;9.312;2023-07-29T14:38:13;1.92;;;1.33;;
18172;SDS011;9211;48.818;9.312;2023-07-29T14:40:41;1.90;;;1.30;;
18172;SDS011;9211;48.818;9.312;2023-07-29T14:43:08;1.83;;;1.45;;
18172;SDS011;9211;48.818;9.312;2023-07-29T14:45:35;2.03;;;1.30;;
18172;SDS011;9211;48.818;9.312;2023-07-29T14:48:02;1.77;;;1.40;;
18172;SDS011;9211;48.818;9.312;2023-07-29T14:50:29;2.88;;;1.50;;
18172;SDS011;9211;48.818;9.312;2023-07-29T14:52:56;1.83;;;1.50;;
18172;SDS011;9211;48.818;9.312;2023-07-29T14:55:23;2.57;;;1.47;;
18172;SDS011;9211;48.818;9.312;2023-07-29T14:57:51;2.22;;;1.40;;
18172;SDS011;9211;48.818;9.312;2023-07-29T15:00:18;1.75;;;1.40;;
18172;SDS011;9211;48.818;9.312;2023-07-29T15:02:45;1.95;;;1.20;;
18172;SDS011;9211;48.818;9.312;2023-07-29T15:05:12;2.30;;;1.40;;
18172;SDS011;9211;48.818;9.312;2023-07-29T15:07:39;3.10;;;1.40;;